METAR AND TAF INFORMATION
METAR FOR EPPO
ADDS - METARS form results

(1751 UTC 29 September 2020)
Data provider http://aviationweather.gov/metar/data/
 
METAR text: EPPO 291730Z 03004KT 9999 OVC039 15/12 Q1015
Conditions at: EPPO (POZNAN/LAWICA , PL) observed 1730 UTC 29 September 2020
Temperature: 15.0°C (59°F)
Dewpoint: 12.0°C (54°F) [RH = 82%]
Pressure (altimeter): 29.97 inches Hg (1015.0 mb)
Winds: from the NNE (30 degrees) at 5 MPH (4 knots; 2.1 m/s)
Visibility: 6 or more miles (10+ km)
Ceiling: 3900 feet AGL
Clouds: overcast cloud deck at 3900 feet AGL
Weather: no significant weather observed at this time

METAR text: EPPO 291700Z 01003KT 9999 SCT026 OVC048 16/12 Q1014
Conditions at: EPPO (POZNAN/LAWICA , PL) observed 1700 UTC 29 September 2020
Temperature: 16.0°C (61°F)
Dewpoint: 12.0°C (54°F) [RH = 77%]
Pressure (altimeter): 29.94 inches Hg (1014.0 mb)
Winds: from the N (10 degrees) at 3 MPH (3 knots; 1.5 m/s)
Visibility: 6 or more miles (10+ km)
Ceiling: 4800 feet AGL
Clouds: scattered clouds at 2600 feet AGL
overcast cloud deck at 4800 feet AGL
Weather: no significant weather observed at this time

Forecast for: EPPO (POZNAN/LAWICA , PL)
Text: TAF EPPO 291730Z 2918/3018 36006KT CAVOK
Forecast period: 1800 UTC 29 September 2020 to 1800 UTC 30 September 2020
Forecast type: FROM: standard forecast or significant change
Winds: from the N (360 degrees) at 7 MPH (6 knots; 3.1 m/s)
Visibility: 6 or more miles (10+ km)
Ceiling: unknown
Clouds: missing
Weather: NSW  (no significant weather)
Text: PROB40
Forecast period: 0200 to 0600 UTC 30 September 2020
Forecast type: TEMPORARY: The following changes expected for less than half the time period
Visibility: missing
Ceiling: 700 feet AGL
Clouds: broken clouds at 700 feet AGL
Weather: no significant weather forecast for this period

 AIRPORT MAP

 RUNWAY INFORMATION
Runway 02 Runway length 2296 ft Runway width 984 ft
Runway elevation 0 ft Runway displaced threshold 0 ft Runway heading 0
Runway 20 Runway length 2296 ft Runway width 984 ft
Runway elevation 0 ft Runway displaced threshold 0 ft Runway heading 0
Runway 10 Runway length 8215 ft Runway width 164 ft
Runway elevation 308 ft Runway displaced threshold 0 ft Runway heading 108
Runway 28 Runway length 8215 ft Runway width 164 ft
Runway elevation 289 ft Runway displaced threshold 0 ft Runway heading 288

 AIRPORT FREQUENCIES
Type APP Name POZNAN APP Frequency 135.525 MHZ
Type ATIS Name POZNAN ATI Frequency 124.7 MHZ
Type TWR Name POZNAN TWR Frequency 119.975 MHZ

 AIRPORT NEAR NAVIGATION AIDS
Type NDB Name Poznan Frequency 429 KHZ



Powered by Virtual Airlines Manager [v2.6.2]